Time,TemperatureF,DewpointF,PressureIn,WindDirection,WindDirectionDegrees,WindSpeedMPH,WindSpeedGustMPH,Humidity,HourlyPrecipIn,Conditions,Clouds,dailyrainin,SoftwareType,DateUTC
2013-02-19 00:02:00,39.0,25.0,30.17,South,179,2.0,7.0,58,0.00,,,0.00,,2013-02-19 05:02:00,
2013-02-19 00:13:00,39.0,25.0,30.17,South,179,2.0,7.0,58,0.00,,,0.00,,2013-02-19 05:13:00,
2013-02-19 00:22:00,39.0,25.0,30.18,SW,217,2.0,9.0,57,0.00,,,0.00,,2013-02-19 05:22:00,
2013-02-19 00:32:00,39.0,25.0,30.17,SW,219,3.0,9.0,56,0.00,,,0.00,,2013-02-19 05:32:00,
2013-02-19 00:43:00,39.0,25.0,30.17,SW,219,3.0,9.0,56,0.00,,,0.00,,2013-02-19 05:43:00,
2013-02-19 00:52:00,39.0,25.0,30.16,SSW,211,4.0,11.0,56,0.00,,,0.00,,2013-02-19 05:52:00,
2013-02-19 01:03:00,39.0,25.0,30.17,SSW,207,1.0,6.0,57,0.00,,,0.00,,2013-02-19 06:03:00,
2013-02-19 01:12:00,39.0,25.0,30.17,SSW,207,1.0,6.0,57,0.00,,,0.00,,2013-02-19 06:12:00,
2013-02-19 01:22:00,39.0,25.0,30.16,West,266,7.0,12.0,56,0.00,,,0.00,,2013-02-19 06:22:00,
2013-02-19 01:32:00,39.0,25.0,30.15,SW,216,1.0,11.0,57,0.00,,,0.00,,2013-02-19 06:32:00,
2013-02-19 01:42:00,39.0,25.0,30.15,SW,216,1.0,11.0,57,0.00,,,0.00,,2013-02-19 06:42:00,
2013-02-19 01:53:00,39.0,25.0,30.15,SW,217,2.0,8.0,57,0.00,,,0.00,,2013-02-19 06:53:00,
2013-02-19 02:01:00,38.0,25.0,30.14,SW,220,2.0,8.0,58,0.00,,,0.00,,2013-02-19 07:01:00,
2013-02-19 02:12:00,38.0,25.0,30.14,SW,220,2.0,8.0,58,0.00,,,0.00,,2013-02-19 07:12:00,
2013-02-19 02:22:00,38.0,25.0,30.12,WSW,238,2.0,6.0,58,0.00,,,0.00,,2013-02-19 07:22:00,
2013-02-19 02:32:00,38.0,25.0,30.12,West,263,2.0,7.0,58,0.00,,,0.00,,2013-02-19 07:32:00,
2013-02-19 02:42:00,38.0,25.0,30.12,West,263,2.0,7.0,58,0.00,,,0.00,,2013-02-19 07:42:00,
2013-02-19 02:52:00,38.0,25.0,30.10,SW,227,5.0,11.0,58,0.00,,,0.00,,2013-02-19 07:52:00,
2013-02-19 03:02:00,38.0,25.0,30.09,WSW,251,6.0,14.0,58,0.00,,,0.00,,2013-02-19 08:02:00,
2013-02-19 03:11:00,38.0,25.0,30.09,WSW,251,6.0,14.0,58,0.00,,,0.00,,2013-02-19 08:11:00,
2013-02-19 03:22:00,38.0,25.0,30.08,SW,234,4.0,12.0,58,0.00,,,0.00,,2013-02-19 08:22:00,
2013-02-19 03:32:00,38.0,25.0,30.07,SSW,198,3.0,8.0,58,0.00,,,0.00,,2013-02-19 08:32:00,
2013-02-19 03:42:00,38.0,25.0,30.07,SSW,198,3.0,8.0,58,0.00,,,0.00,,2013-02-19 08:42:00,
2013-02-19 03:52:00,38.0,24.0,30.06,West,261,2.0,13.0,57,0.00,,,0.00,,2013-02-19 08:52:00,
2013-02-19 04:02:00,38.0,24.0,30.06,West,261,2.0,13.0,57,0.00,,,0.00,,2013-02-19 09:02:00,
2013-02-19 04:11:00,38.0,24.0,30.06,West,261,2.0,13.0,57,0.00,,,0.00,,2013-02-19 09:11:00,
2013-02-19 04:22:00,38.0,24.0,30.06,SW,215,3.0,12.0,57,0.00,,,0.00,,2013-02-19 09:22:00,
2013-02-19 04:32:00,38.0,24.0,30.05,WSW,250,1.0,12.0,56,0.00,,,0.00,,2013-02-19 09:32:00,
2013-02-19 04:42:00,38.0,24.0,30.05,WSW,250,1.0,12.0,56,0.00,,,0.00,,2013-02-19 09:42:00,
2013-02-19 04:53:00,39.0,25.0,30.04,SSW,202,2.0,6.0,56,0.00,,,0.00,,2013-02-19 09:53:00,
2013-02-19 05:02:00,39.0,24.0,30.05,SW,222,4.0,14.0,55,0.00,,,0.00,,2013-02-19 10:02:00,
2013-02-19 05:11:00,39.0,24.0,30.05,SW,222,4.0,14.0,55,0.00,,,0.00,,2013-02-19 10:11:00,
2013-02-19 05:22:00,39.0,24.0,30.05,SW,226,5.0,12.0,55,0.00,,,0.00,,2013-02-19 10:22:00,
2013-02-19 05:32:00,39.0,24.0,30.05,WSW,241,3.0,10.0,54,0.00,,,0.00,,2013-02-19 10:32:00,
2013-02-19 05:42:00,39.0,24.0,30.05,WSW,241,3.0,10.0,54,0.00,,,0.00,,2013-02-19 10:42:00,
2013-02-19 05:51:00,39.0,24.0,30.04,West,264,3.0,10.0,54,0.00,,,0.00,,2013-02-19 10:51:00,
2013-02-19 06:01:00,39.0,24.0,30.04,West,261,5.0,10.0,54,0.00,,,0.00,,2013-02-19 11:01:00,
2013-02-19 06:11:00,39.0,24.0,30.04,West,261,5.0,10.0,54,0.00,,,0.00,,2013-02-19 11:11:00,
2013-02-19 06:22:00,39.0,24.0,30.03,SW,232,3.0,11.0,54,0.00,,,0.00,,2013-02-19 11:22:00,
2013-02-19 06:32:00,38.0,29.0,30.04,WSW,242,11.0,23.0,71,0.00,,,0.00,,2013-02-19 11:32:00,
2013-02-19 06:42:00,38.0,29.0,30.04,WSW,242,11.0,23.0,71,0.00,,,0.00,,2013-02-19 11:42:00,
2013-02-19 06:52:00,36.0,29.0,30.05,West,269,8.0,18.0,76,0.00,,,0.00,,2013-02-19 11:52:00,
2013-02-19 07:02:00,35.0,30.0,30.04,West,263,7.0,16.0,82,0.00,,,0.00,,2013-02-19 12:02:00,
2013-02-19 07:12:00,35.0,30.0,30.04,West,263,7.0,16.0,82,0.00,,,0.00,,2013-02-19 12:12:00,
2013-02-19 07:22:00,34.0,30.0,30.04,West,267,5.0,11.0,86,0.00,,,0.00,,2013-02-19 12:22:00,
2013-02-19 07:32:00,33.0,30.0,30.03,West,277,3.0,10.0,89,0.00,,,0.00,,2013-02-19 12:32:00,
2013-02-19 07:42:00,33.0,30.0,30.03,West,277,3.0,10.0,89,0.00,,,0.00,,2013-02-19 12:42:00,
2013-02-19 07:52:00,33.0,30.0,30.03,West,263,2.0,7.0,90,0.00,,,0.00,,2013-02-19 12:52:00,
2013-02-19 08:02:00,33.0,30.0,30.03,West,263,2.0,7.0,90,0.00,,,0.00,,2013-02-19 13:02:00,
2013-02-19 08:11:00,33.0,30.0,30.03,West,263,2.0,7.0,90,0.00,,,0.00,,2013-02-19 13:11:00,
2013-02-19 08:22:00,33.0,31.0,30.02,West,267,0.0,3.0,92,0.00,,,0.00,,2013-02-19 13:22:00,
2013-02-19 08:32:00,33.0,31.0,30.00,West,267,0.0,2.0,92,0.00,,,0.00,,2013-02-19 13:32:00,
2013-02-19 08:42:00,33.0,31.0,30.00,West,267,0.0,2.0,92,0.00,,,0.00,,2013-02-19 13:42:00,
2013-02-19 08:52:00,33.0,31.0,29.99,West,267,0.0,2.0,92,0.00,,,0.00,,2013-02-19 13:52:00,
2013-02-19 09:02:00,33.0,31.0,29.98,West,267,0.0,1.0,93,0.00,,,0.00,,2013-02-19 14:02:00,
2013-02-19 09:12:00,33.0,31.0,29.98,West,267,0.0,1.0,93,0.00,,,0.00,,2013-02-19 14:12:00,
2013-02-19 09:22:00,33.0,31.0,29.96,West,267,0.0,1.0,93,0.00,,,0.00,,2013-02-19 14:22:00,
2013-02-19 09:33:00,34.0,32.0,29.96,West,267,0.0,1.0,94,0.01,,,0.01,,2013-02-19 14:33:00,
2013-02-19 09:42:00,34.0,32.0,29.96,West,267,0.0,1.0,94,0.01,,,0.01,,2013-02-19 14:42:00,
2013-02-19 09:52:00,34.0,32.0,29.95,West,267,0.0,2.0,94,0.01,,,0.01,,2013-02-19 14:52:00,
2013-02-19 10:02:00,35.0,33.0,29.94,West,267,0.0,1.0,94,0.03,,,0.03,,2013-02-19 15:02:00,
2013-02-19 10:11:00,35.0,33.0,29.94,West,267,0.0,1.0,94,0.03,,,0.03,,2013-02-19 15:11:00,
2013-02-19 10:22:00,35.0,33.0,29.94,West,267,0.0,1.0,94,0.03,,,0.03,,2013-02-19 15:22:00,
2013-02-19 10:32:00,36.0,34.0,29.93,West,267,0.0,0.0,94,0.03,,,0.03,,2013-02-19 15:32:00,
2013-02-19 10:42:00,36.0,34.0,29.93,West,267,0.0,0.0,94,0.03,,,0.03,,2013-02-19 15:42:00,
2013-02-19 10:52:00,36.0,34.0,29.93,West,267,0.0,1.0,94,0.03,,,0.03,,2013-02-19 15:52:00,
2013-02-19 11:02:00,37.0,36.0,29.92,West,267,0.0,0.0,95,0.02,,,0.03,,2013-02-19 16:02:00,
2013-02-19 11:11:00,37.0,36.0,29.92,West,267,0.0,0.0,95,0.02,,,0.03,,2013-02-19 16:11:00,
2013-02-19 11:22:00,37.0,36.0,29.92,West,267,0.0,0.0,95,0.02,,,0.03,,2013-02-19 16:22:00,
2013-02-19 11:32:00,38.0,36.0,29.91,West,267,0.0,3.0,94,0.00,,,0.03,,2013-02-19 16:32:00,
2013-02-19 11:42:00,38.0,36.0,29.91,West,267,0.0,3.0,94,0.00,,,0.03,,2013-02-19 16:42:00,
2013-02-19 11:52:00,38.0,36.0,29.91,West,267,0.0,3.0,94,0.00,,,0.03,,2013-02-19 16:52:00,
2013-02-19 12:01:00,41.0,38.0,29.90,West,261,6.0,13.0,90,0.00,,,0.03,,2013-02-19 17:01:00,
2013-02-19 12:11:00,41.0,38.0,29.90,West,261,6.0,13.0,90,0.00,,,0.03,,2013-02-19 17:11:00,
2013-02-19 12:21:00,41.0,38.0,29.90,West,261,6.0,13.0,90,0.00,,,0.03,,2013-02-19 17:21:00,
2013-02-19 12:32:00,42.0,38.0,29.89,West,281,7.0,12.0,85,0.00,,,0.03,,2013-02-19 17:32:00,
2013-02-19 12:42:00,42.0,38.0,29.89,West,281,7.0,12.0,85,0.00,,,0.03,,2013-02-19 17:42:00,
2013-02-19 12:52:00,43.0,38.0,29.86,West,281,4.0,12.0,83,0.00,,,0.03,,2013-02-19 17:52:00,
2013-02-19 13:02:00,43.0,38.0,29.86,West,275,8.0,17.0,82,0.00,,,0.03,,2013-02-19 18:02:00,
2013-02-19 13:11:00,43.0,38.0,29.86,West,275,8.0,17.0,82,0.00,,,0.03,,2013-02-19 18:11:00,
2013-02-19 13:21:00,43.0,38.0,29.86,West,275,8.0,17.0,82,0.00,,,0.03,,2013-02-19 18:21:00,
2013-02-19 13:32:00,44.0,38.0,29.85,WSW,254,10.0,20.0,80,0.01,,,0.04,,2013-02-19 18:32:00,
2013-02-19 13:42:00,44.0,38.0,29.85,WSW,254,10.0,20.0,80,0.01,,,0.04,,2013-02-19 18:42:00,
2013-02-19 13:52:00,43.0,38.0,29.84,WSW,258,12.0,23.0,82,0.01,,,0.04,,2013-02-19 18:52:00,
2013-02-19 14:01:00,43.0,38.0,29.84,WSW,258,12.0,23.0,82,0.01,,,0.04,,2013-02-19 19:01:00,
2013-02-19 14:11:00,43.0,38.0,29.84,WSW,258,12.0,23.0,82,0.01,,,0.04,,2013-02-19 19:11:00,
2013-02-19 14:21:00,44.0,38.0,29.83,West,274,11.0,22.0,80,0.01,,,0.04,,2013-02-19 19:21:00,
2013-02-19 14:32:00,45.0,37.0,29.82,West,261,14.0,23.0,74,0.00,,,0.04,,2013-02-19 19:32:00,
2013-02-19 14:42:00,45.0,37.0,29.82,West,261,14.0,23.0,74,0.00,,,0.04,,2013-02-19 19:42:00,
2013-02-19 14:52:00,45.0,37.0,29.82,West,261,14.0,23.0,74,0.00,,,0.04,,2013-02-19 19:52:00,
2013-02-19 15:02:00,46.0,36.0,29.81,West,266,10.0,22.0,67,0.00,,,0.04,,2013-02-19 20:02:00,
2013-02-19 15:12:00,46.0,36.0,29.81,West,266,10.0,22.0,67,0.00,,,0.04,,2013-02-19 20:12:00,
2013-02-19 15:21:00,46.0,35.0,29.81,West,279,16.0,26.0,65,0.00,,,0.04,,2013-02-19 20:21:00,
2013-02-19 15:32:00,45.0,34.0,29.80,WNW,292,8.0,19.0,64,0.00,,,0.04,,2013-02-19 20:32:00,
2013-02-19 15:42:00,45.0,34.0,29.80,WNW,292,8.0,19.0,64,0.00,,,0.04,,2013-02-19 20:42:00,
2013-02-19 15:52:00,45.0,34.0,29.80,WNW,292,8.0,19.0,64,0.00,,,0.04,,2013-02-19 20:52:00,
2013-02-19 16:02:00,46.0,32.0,29.80,WSW,254,9.0,22.0,59,0.00,,,0.04,,2013-02-19 21:02:00,
2013-02-19 16:11:00,46.0,32.0,29.80,WSW,254,9.0,22.0,59,0.00,,,0.04,,2013-02-19 21:11:00,
2013-02-19 16:21:00,46.0,30.0,29.81,West,279,9.0,23.0,53,0.00,,,0.04,,2013-02-19 21:21:00,
2013-02-19 16:32:00,44.0,29.0,29.83,NW,304,12.0,28.0,56,0.00,,,0.04,,2013-02-19 21:32:00,
2013-02-19 16:42:00,44.0,29.0,29.83,NW,304,12.0,28.0,56,0.00,,,0.04,,2013-02-19 21:42:00,
2013-02-19 16:52:00,44.0,29.0,29.83,NW,304,12.0,28.0,56,0.00,,,0.04,,2013-02-19 21:52:00,
2013-02-19 17:02:00,44.0,28.0,29.83,West,275,10.0,27.0,53,0.00,,,0.04,,2013-02-19 22:02:00,
2013-02-19 17:11:00,44.0,28.0,29.83,West,275,10.0,27.0,53,0.00,,,0.04,,2013-02-19 22:11:00,
2013-02-19 17:21:00,45.0,23.0,29.83,NW,316,14.0,25.0,41,0.00,,,0.04,,2013-02-19 22:21:00,
2013-02-19 17:32:00,45.0,23.0,29.83,NW,316,14.0,25.0,41,0.00,,,0.04,,2013-02-19 22:32:00,
2013-02-19 17:42:00,45.0,23.0,29.83,NW,316,14.0,25.0,41,0.00,,,0.04,,2013-02-19 22:42:00,
2013-02-19 17:52:00,45.0,21.0,29.85,NW,315,10.0,25.0,38,0.00,,,0.04,,2013-02-19 22:52:00,
2013-02-19 18:01:00,43.0,19.0,29.86,West,280,9.0,23.0,37,0.00,,,0.04,,2013-02-19 23:01:00,
2013-02-19 18:11:00,43.0,19.0,29.86,West,280,9.0,23.0,37,0.00,,,0.04,,2013-02-19 23:11:00,
2013-02-19 18:21:00,43.0,19.0,29.86,West,280,9.0,23.0,37,0.00,,,0.04,,2013-02-19 23:21:00,
2013-02-19 18:32:00,42.0,19.0,29.88,NW,312,8.0,20.0,40,0.00,,,0.04,,2013-02-19 23:32:00,
2013-02-19 18:42:00,42.0,19.0,29.88,NW,312,8.0,20.0,40,0.00,,,0.04,,2013-02-19 23:42:00,
2013-02-19 18:52:00,42.0,19.0,29.88,NW,312,8.0,20.0,40,0.00,,,0.04,,2013-02-19 23:52:00,
2013-02-19 19:02:00,42.0,21.0,29.89,NW,320,5.0,16.0,42,0.00,,,0.04,,2013-02-20 00:02:00,
2013-02-19 19:11:00,42.0,21.0,29.89,NW,320,5.0,16.0,42,0.00,,,0.04,,2013-02-20 00:11:00,
2013-02-19 19:21:00,42.0,19.0,29.90,West,263,7.0,24.0,40,0.00,,,0.04,,2013-02-20 00:21:00,
2013-02-19 19:32:00,41.0,18.0,29.90,WNW,297,10.0,19.0,39,0.00,,,0.04,,2013-02-20 00:32:00,
2013-02-19 19:42:00,41.0,18.0,29.90,WNW,297,10.0,19.0,39,0.00,,,0.04,,2013-02-20 00:42:00,
2013-02-19 19:52:00,41.0,19.0,29.91,WNW,282,6.0,12.0,40,0.00,,,0.04,,2013-02-20 00:52:00,
2013-02-19 20:02:00,40.0,16.0,29.92,WNW,296,7.0,21.0,38,0.00,,,0.04,,2013-02-20 01:02:00,
2013-02-19 20:11:00,40.0,16.0,29.92,WNW,296,7.0,21.0,38,0.00,,,0.04,,2013-02-20 01:11:00,
2013-02-19 20:22:00,40.0,15.0,29.92,West,276,10.0,22.0,35,0.00,,,0.04,,2013-02-20 01:22:00,
2013-02-19 20:32:00,39.0,14.0,29.93,NW,311,9.0,20.0,36,0.00,,,0.04,,2013-02-20 01:32:00,
2013-02-19 20:42:00,39.0,14.0,29.93,NW,311,9.0,20.0,36,0.00,,,0.04,,2013-02-20 01:42:00,
2013-02-19 20:52:00,39.0,14.0,29.93,NW,315,8.0,18.0,36,0.00,,,0.04,,2013-02-20 01:52:00,
2013-02-19 21:02:00,38.0,12.0,29.94,NW,319,10.0,23.0,34,0.00,,,0.04,,2013-02-20 02:02:00,
2013-02-19 21:11:00,38.0,12.0,29.94,NW,319,10.0,23.0,34,0.00,,,0.04,,2013-02-20 02:11:00,
2013-02-19 21:22:00,38.0,13.0,29.94,NW,304,9.0,17.0,35,0.00,,,0.04,,2013-02-20 02:22:00,
2013-02-19 21:32:00,37.0,13.0,29.94,NW,306,8.0,16.0,36,0.00,,,0.04,,2013-02-20 02:32:00,
2013-02-19 21:42:00,37.0,13.0,29.94,NW,306,8.0,16.0,36,0.00,,,0.04,,2013-02-20 02:42:00,
2013-02-19 21:52:00,37.0,14.0,29.95,WNW,302,10.0,20.0,38,0.00,,,0.04,,2013-02-20 02:52:00,
2013-02-19 22:02:00,36.0,13.0,29.96,NW,321,10.0,16.0,38,0.00,,,0.04,,2013-02-20 03:02:00,
2013-02-19 22:12:00,36.0,13.0,29.96,NW,321,10.0,16.0,38,0.00,,,0.04,,2013-02-20 03:12:00,
2013-02-19 22:22:00,36.0,13.0,29.96,NW,321,10.0,16.0,38,0.00,,,0.04,,2013-02-20 03:22:00,
2013-02-19 22:32:00,35.0,13.0,29.96,WNW,300,9.0,21.0,39,0.00,,,0.04,,2013-02-20 03:32:00,
2013-02-19 22:42:00,35.0,13.0,29.96,WNW,300,9.0,21.0,39,0.00,,,0.04,,2013-02-20 03:42:00,
2013-02-19 22:52:00,35.0,13.0,29.96,WSW,242,10.0,21.0,40,0.00,,,0.04,,2013-02-20 03:52:00,
2013-02-19 23:01:00,35.0,14.0,29.96,NNW,334,9.0,18.0,41,0.00,,,0.04,,2013-02-20 04:01:00,
2013-02-19 23:11:00,35.0,14.0,29.96,NNW,334,9.0,18.0,41,0.00,,,0.04,,2013-02-20 04:11:00,
2013-02-19 23:21:00,34.0,14.0,29.96,West,278,9.0,14.0,43,0.00,,,0.04,,2013-02-20 04:21:00,
2013-02-19 23:32:00,34.0,14.0,29.96,West,278,9.0,14.0,43,0.00,,,0.04,,2013-02-20 04:32:00,
2013-02-19 23:42:00,34.0,14.0,29.96,West,278,9.0,14.0,43,0.00,,,0.04,,2013-02-20 04:42:00,
2013-02-19 23:52:00,34.0,14.0,29.97,WNW,298,10.0,24.0,43,0.00,,,0.04,,2013-02-20 04:52:00,